sensor_id;sensor_type;location;lat;lon;timestamp;P1;durP1;ratioP1;P2;durP2;ratioP2
66856;SDS011;53766;50.280;19.160;2023-03-01T00:01:43;34.58;;;17.73;;
66856;SDS011;53766;50.280;19.160;2023-03-01T00:04:10;32.78;;;17.13;;
66856;SDS011;53766;50.280;19.160;2023-03-01T00:06:38;35.17;;;18.00;;
66856;SDS011;53766;50.280;19.160;2023-03-01T00:09:06;32.75;;;18.88;;
66856;SDS011;53766;50.280;19.160;2023-03-01T00:11:33;34.38;;;18.63;;
66856;SDS011;53766;50.280;19.160;2023-03-01T00:14:01;36.25;;;18.77;;
66856;SDS011;53766;50.280;19.160;2023-03-01T00:16:36;33.60;;;18.77;;
66856;SDS011;53766;50.280;19.160;2023-03-01T00:19:07;35.65;;;18.25;;
66856;SDS011;53766;50.280;19.160;2023-03-01T00:21:38;35.90;;;18.27;;
66856;SDS011;53766;50.280;19.160;2023-03-01T00:24:07;33.92;;;19.05;;
66856;SDS011;53766;50.280;19.160;2023-03-01T00:26:35;35.88;;;19.45;;
66856;SDS011;53766;50.280;19.160;2023-03-01T00:29:03;35.85;;;19.48;;
66856;SDS011;53766;50.280;19.160;2023-03-01T00:31:31;38.63;;;20.00;;
66856;SDS011;53766;50.280;19.160;2023-03-01T00:34:01;36.58;;;18.75;;
66856;SDS011;53766;50.280;19.160;2023-03-01T00:36:31;39.70;;;20.88;;
66856;SDS011;53766;50.280;19.160;2023-03-01T00:39:02;35.08;;;19.35;;
66856;SDS011;53766;50.280;19.160;2023-03-01T00:41:31;36.50;;;20.15;;
66856;SDS011;53766;50.280;19.160;2023-03-01T00:44:00;36.67;;;19.67;;
66856;SDS011;53766;50.280;19.160;2023-03-01T00:46:28;36.38;;;20.35;;
66856;SDS011;53766;50.280;19.160;2023-03-01T00:48:57;38.78;;;20.50;;
66856;SDS011;53766;50.280;19.160;2023-03-01T00:51:27;36.30;;;19.85;;
66856;SDS011;53766;50.280;19.160;2023-03-01T00:53:56;36.38;;;20.52;;
66856;SDS011;53766;50.280;19.160;2023-03-01T00:56:26;38.47;;;22.08;;
66856;SDS011;53766;50.280;19.160;2023-03-01T00:58:53;39.42;;;20.67;;
66856;SDS011;53766;50.280;19.160;2023-03-01T01:01:23;42.58;;;21.83;;
66856;SDS011;53766;50.280;19.160;2023-03-01T01:03:58;37.50;;;21.40;;
66856;SDS011;53766;50.280;19.160;2023-03-01T01:06:31;43.53;;;22.58;;
66856;SDS011;53766;50.280;19.160;2023-03-01T01:09:12;41.92;;;22.42;;
66856;SDS011;53766;50.280;19.160;2023-03-01T01:11:45;42.70;;;22.30;;
66856;SDS011;53766;50.280;19.160;2023-03-01T01:14:17;40.65;;;21.63;;
66856;SDS011;53766;50.280;19.160;2023-03-01T01:16:47;44.25;;;22.83;;
66856;SDS011;53766;50.280;19.160;2023-03-01T01:19:14;41.45;;;22.13;;
66856;SDS011;53766;50.280;19.160;2023-03-01T01:21:42;40.38;;;22.85;;
66856;SDS011;53766;50.280;19.160;2023-03-01T01:24:12;41.72;;;21.63;;
66856;SDS011;53766;50.280;19.160;2023-03-01T01:26:39;41.63;;;23.00;;
66856;SDS011;53766;50.280;19.160;2023-03-01T01:29:07;42.97;;;23.92;;
66856;SDS011;53766;50.280;19.160;2023-03-01T01:31:37;43.13;;;23.05;;
66856;SDS011;53766;50.280;19.160;2023-03-01T01:34:07;45.20;;;24.23;;
66856;SDS011;53766;50.280;19.160;2023-03-01T01:36:35;47.08;;;23.58;;
66856;SDS011;53766;50.280;19.160;2023-03-01T01:39:03;45.55;;;24.05;;
66856;SDS011;53766;50.280;19.160;2023-03-01T01:41:31;45.60;;;24.42;;
66856;SDS011;53766;50.280;19.160;2023-03-01T01:46:54;51.00;;;25.58;;
66856;SDS011;53766;50.280;19.160;2023-03-01T01:49:28;51.00;;;25.42;;
66856;SDS011;53766;50.280;19.160;2023-03-01T01:52:12;45.60;;;25.33;;
66856;SDS011;53766;50.280;19.160;2023-03-01T01:54:44;49.85;;;25.98;;
66856;SDS011;53766;50.280;19.160;2023-03-01T01:57:24;47.03;;;24.92;;
66856;SDS011;53766;50.280;19.160;2023-03-01T01:59:56;48.25;;;25.98;;
66856;SDS011;53766;50.280;19.160;2023-03-01T02:02:26;48.17;;;26.08;;
66856;SDS011;53766;50.280;19.160;2023-03-01T02:04:58;47.80;;;26.15;;
66856;SDS011;53766;50.280;19.160;2023-03-01T02:07:38;52.33;;;26.05;;
66856;SDS011;53766;50.280;19.160;2023-03-01T02:10:07;53.88;;;27.58;;
66856;SDS011;53766;50.280;19.160;2023-03-01T02:12:36;50.33;;;27.08;;
66856;SDS011;53766;50.280;19.160;2023-03-01T02:15:05;51.97;;;27.60;;
66856;SDS011;53766;50.280;19.160;2023-03-01T02:17:33;56.83;;;28.23;;
66856;SDS011;53766;50.280;19.160;2023-03-01T02:20:12;54.95;;;28.63;;
66856;SDS011;53766;50.280;19.160;2023-03-01T02:22:42;48.90;;;27.50;;
66856;SDS011;53766;50.280;19.160;2023-03-01T02:27:54;54.00;;;28.60;;
66856;SDS011;53766;50.280;19.160;2023-03-01T02:30:43;51.72;;;28.40;;
66856;SDS011;53766;50.280;19.160;2023-03-01T02:33:34;54.83;;;28.95;;
66856;SDS011;53766;50.280;19.160;2023-03-01T02:36:04;54.65;;;28.52;;
66856;SDS011;53766;50.280;19.160;2023-03-01T02:38:36;56.05;;;29.23;;
66856;SDS011;53766;50.280;19.160;2023-03-01T02:41:03;57.70;;;29.52;;
66856;SDS011;53766;50.280;19.160;2023-03-01T02:43:33;59.95;;;30.58;;
66856;SDS011;53766;50.280;19.160;2023-03-01T02:46:03;56.65;;;29.65;;
66856;SDS011;53766;50.280;19.160;2023-03-01T02:48:40;56.90;;;30.60;;
66856;SDS011;53766;50.280;19.160;2023-03-01T02:51:22;58.40;;;30.80;;
66856;SDS011;53766;50.280;19.160;2023-03-01T02:56:36;56.03;;;30.15;;
66856;SDS011;53766;50.280;19.160;2023-03-01T02:59:04;58.05;;;30.65;;
66856;SDS011;53766;50.280;19.160;2023-03-01T03:01:32;57.70;;;29.83;;
66856;SDS011;53766;50.280;19.160;2023-03-01T03:04:06;58.80;;;30.98;;
66856;SDS011;53766;50.280;19.160;2023-03-01T03:06:37;60.40;;;31.88;;
66856;SDS011;53766;50.280;19.160;2023-03-01T03:09:04;60.75;;;32.20;;
66856;SDS011;53766;50.280;19.160;2023-03-01T03:11:31;61.75;;;32.60;;
66856;SDS011;53766;50.280;19.160;2023-03-01T03:13:59;59.03;;;32.17;;
66856;SDS011;53766;50.280;19.160;2023-03-01T03:16:26;58.03;;;30.67;;
66856;SDS011;53766;50.280;19.160;2023-03-01T03:18:54;58.17;;;31.80;;
66856;SDS011;53766;50.280;19.160;2023-03-01T03:21:21;61.90;;;32.38;;
66856;SDS011;53766;50.280;19.160;2023-03-01T03:23:49;62.08;;;32.88;;
66856;SDS011;53766;50.280;19.160;2023-03-01T03:26:16;60.20;;;32.97;;
66856;SDS011;53766;50.280;19.160;2023-03-01T03:28:43;66.22;;;33.28;;
66856;SDS011;53766;50.280;19.160;2023-03-01T03:31:11;60.78;;;31.90;;
66856;SDS011;53766;50.280;19.160;2023-03-01T03:33:38;62.40;;;33.55;;
66856;SDS011;53766;50.280;19.160;2023-03-01T03:36:06;60.00;;;32.72;;
66856;SDS011;53766;50.280;19.160;2023-03-01T03:38:39;61.97;;;33.10;;
66856;SDS011;53766;50.280;19.160;2023-03-01T03:41:07;59.20;;;33.22;;
66856;SDS011;53766;50.280;19.160;2023-03-01T03:43:36;60.40;;;32.17;;
66856;SDS011;53766;50.280;19.160;2023-03-01T03:46:04;63.67;;;33.42;;
66856;SDS011;53766;50.280;19.160;2023-03-01T03:48:34;65.47;;;34.28;;
66856;SDS011;53766;50.280;19.160;2023-03-01T03:51:03;64.45;;;33.88;;
66856;SDS011;53766;50.280;19.160;2023-03-01T03:53:32;63.65;;;33.25;;
66856;SDS011;53766;50.280;19.160;2023-03-01T03:56:00;65.35;;;33.80;;
66856;SDS011;53766;50.280;19.160;2023-03-01T03:58:27;63.67;;;34.42;;
66856;SDS011;53766;50.280;19.160;2023-03-01T04:00:56;61.85;;;33.35;;
66856;SDS011;53766;50.280;19.160;2023-03-01T04:03:25;62.47;;;32.97;;
66856;SDS011;53766;50.280;19.160;2023-03-01T04:05:53;65.03;;;33.63;;
66856;SDS011;53766;50.280;19.160;2023-03-01T04:08:21;65.38;;;35.35;;
66856;SDS011;53766;50.280;19.160;2023-03-01T04:10:50;65.75;;;34.30;;
66856;SDS011;53766;50.280;19.160;2023-03-01T04:13:21;63.83;;;33.50;;
66856;SDS011;53766;50.280;19.160;2023-03-01T04:15:50;62.25;;;33.33;;
66856;SDS011;53766;50.280;19.160;2023-03-01T04:18:21;61.88;;;33.90;;
66856;SDS011;53766;50.280;19.160;2023-03-01T04:20:50;65.78;;;34.00;;
66856;SDS011;53766;50.280;19.160;2023-03-01T04:23:20;64.88;;;34.50;;
66856;SDS011;53766;50.280;19.160;2023-03-01T04:28:29;65.82;;;34.05;;
66856;SDS011;53766;50.280;19.160;2023-03-01T04:31:08;62.85;;;33.63;;
66856;SDS011;53766;50.280;19.160;2023-03-01T04:33:51;65.28;;;34.45;;
66856;SDS011;53766;50.280;19.160;2023-03-01T04:36:21;66.00;;;34.13;;
66856;SDS011;53766;50.280;19.160;2023-03-01T04:38:51;64.65;;;34.58;;
66856;SDS011;53766;50.280;19.160;2023-03-01T04:41:19;67.78;;;35.00;;
66856;SDS011;53766;50.280;19.160;2023-03-01T04:43:48;67.90;;;35.15;;
66856;SDS011;53766;50.280;19.160;2023-03-01T04:46:17;67.60;;;34.47;;
66856;SDS011;53766;50.280;19.160;2023-03-01T04:48:50;65.28;;;35.47;;
66856;SDS011;53766;50.280;19.160;2023-03-01T04:51:17;64.90;;;34.53;;
66856;SDS011;53766;50.280;19.160;2023-03-01T04:53:45;69.35;;;36.58;;
66856;SDS011;53766;50.280;19.160;2023-03-01T04:56:13;63.17;;;34.05;;
66856;SDS011;53766;50.280;19.160;2023-03-01T04:58:41;66.28;;;35.45;;
66856;SDS011;53766;50.280;19.160;2023-03-01T05:01:12;66.72;;;34.75;;
66856;SDS011;53766;50.280;19.160;2023-03-01T05:03:44;62.42;;;34.63;;
66856;SDS011;53766;50.280;19.160;2023-03-01T05:06:17;66.30;;;35.05;;
66856;SDS011;53766;50.280;19.160;2023-03-01T05:08:46;67.85;;;36.65;;
66856;SDS011;53766;50.280;19.160;2023-03-01T05:11:13;66.75;;;35.33;;
66856;SDS011;53766;50.280;19.160;2023-03-01T05:13:41;61.67;;;33.28;;
66856;SDS011;53766;50.280;19.160;2023-03-01T05:16:08;63.88;;;35.38;;
66856;SDS011;53766;50.280;19.160;2023-03-01T05:18:39;61.88;;;34.15;;
66856;SDS011;53766;50.280;19.160;2023-03-01T05:21:08;62.38;;;34.05;;
66856;SDS011;53766;50.280;19.160;2023-03-01T05:23:38;66.38;;;34.67;;
66856;SDS011;53766;50.280;19.160;2023-03-01T05:26:06;65.47;;;35.40;;
66856;SDS011;53766;50.280;19.160;2023-03-01T05:28:52;64.30;;;34.40;;
66856;SDS011;53766;50.280;19.160;2023-03-01T05:31:23;64.65;;;35.30;;
66856;SDS011;53766;50.280;19.160;2023-03-01T05:33:51;63.28;;;34.85;;
66856;SDS011;53766;50.280;19.160;2023-03-01T05:36:19;65.90;;;35.75;;
66856;SDS011;53766;50.280;19.160;2023-03-01T05:38:47;72.72;;;35.53;;
66856;SDS011;53766;50.280;19.160;2023-03-01T05:41:14;64.05;;;34.40;;
66856;SDS011;53766;50.280;19.160;2023-03-01T05:43:43;65.90;;;36.20;;
66856;SDS011;53766;50.280;19.160;2023-03-01T05:46:12;64.18;;;34.80;;
66856;SDS011;53766;50.280;19.160;2023-03-01T05:48:41;63.88;;;34.60;;
66856;SDS011;53766;50.280;19.160;2023-03-01T05:51:08;62.35;;;33.40;;
66856;SDS011;53766;50.280;19.160;2023-03-01T05:53:35;67.90;;;35.85;;
66856;SDS011;53766;50.280;19.160;2023-03-01T05:56:03;63.72;;;34.75;;
66856;SDS011;53766;50.280;19.160;2023-03-01T05:58:31;66.65;;;35.13;;
66856;SDS011;53766;50.280;19.160;2023-03-01T06:00:59;65.15;;;34.72;;
66856;SDS011;53766;50.280;19.160;2023-03-01T06:03:26;69.55;;;34.72;;
66856;SDS011;53766;50.280;19.160;2023-03-01T06:05:57;64.28;;;35.33;;
66856;SDS011;53766;50.280;19.160;2023-03-01T06:08:25;61.67;;;34.38;;
66856;SDS011;53766;50.280;19.160;2023-03-01T06:10:54;63.22;;;35.03;;
66856;SDS011;53766;50.280;19.160;2023-03-01T06:13:22;68.18;;;35.85;;
66856;SDS011;53766;50.280;19.160;2023-03-01T06:15:51;65.30;;;35.03;;
66856;SDS011;53766;50.280;19.160;2023-03-01T06:18:19;67.30;;;35.38;;
66856;SDS011;53766;50.280;19.160;2023-03-01T06:20:52;68.57;;;36.70;;
66856;SDS011;53766;50.280;19.160;2023-03-01T06:23:22;68.53;;;35.28;;
66856;SDS011;53766;50.280;19.160;2023-03-01T06:25:50;61.60;;;35.58;;
66856;SDS011;53766;50.280;19.160;2023-03-01T06:28:18;65.07;;;35.42;;
66856;SDS011;53766;50.280;19.160;2023-03-01T06:30:45;70.80;;;36.50;;
66856;SDS011;53766;50.280;19.160;2023-03-01T06:33:13;66.47;;;35.13;;
66856;SDS011;53766;50.280;19.160;2023-03-01T06:35:41;64.78;;;36.00;;
66856;SDS011;53766;50.280;19.160;2023-03-01T06:38:08;73.15;;;37.47;;
66856;SDS011;53766;50.280;19.160;2023-03-01T06:40:36;64.05;;;35.60;;
66856;SDS011;53766;50.280;19.160;2023-03-01T06:43:04;64.07;;;36.08;;
66856;SDS011;53766;50.280;19.160;2023-03-01T06:45:31;69.35;;;36.55;;
66856;SDS011;53766;50.280;19.160;2023-03-01T06:48:03;65.75;;;36.80;;
66856;SDS011;53766;50.280;19.160;2023-03-01T06:50:31;65.95;;;36.80;;
66856;SDS011;53766;50.280;19.160;2023-03-01T06:52:59;67.75;;;36.50;;
66856;SDS011;53766;50.280;19.160;2023-03-01T06:55:27;68.00;;;36.58;;
66856;SDS011;53766;50.280;19.160;2023-03-01T06:57:55;64.35;;;36.20;;
66856;SDS011;53766;50.280;19.160;2023-03-01T07:00:24;65.32;;;35.88;;
66856;SDS011;53766;50.280;19.160;2023-03-01T07:02:52;67.95;;;37.10;;
66856;SDS011;53766;50.280;19.160;2023-03-01T07:05:20;66.50;;;36.03;;
66856;SDS011;53766;50.280;19.160;2023-03-01T07:07:48;72.00;;;37.13;;
66856;SDS011;53766;50.280;19.160;2023-03-01T07:10:15;64.30;;;35.25;;
66856;SDS011;53766;50.280;19.160;2023-03-01T07:12:43;62.88;;;35.83;;
66856;SDS011;53766;50.280;19.160;2023-03-01T07:15:10;68.93;;;36.38;;
66856;SDS011;53766;50.280;19.160;2023-03-01T07:17:38;66.35;;;35.22;;
66856;SDS011;53766;50.280;19.160;2023-03-01T07:20:05;64.70;;;37.83;;
66856;SDS011;53766;50.280;19.160;2023-03-01T07:22:33;66.85;;;37.40;;
66856;SDS011;53766;50.280;19.160;2023-03-01T07:25:01;65.40;;;36.55;;
66856;SDS011;53766;50.280;19.160;2023-03-01T07:27:28;67.43;;;37.42;;
66856;SDS011;53766;50.280;19.160;2023-03-01T07:29:55;66.82;;;36.63;;
66856;SDS011;53766;50.280;19.160;2023-03-01T07:32:23;70.07;;;36.63;;
66856;SDS011;53766;50.280;19.160;2023-03-01T07:34:51;66.30;;;36.38;;
66856;SDS011;53766;50.280;19.160;2023-03-01T07:37:18;66.88;;;36.20;;
66856;SDS011;53766;50.280;19.160;2023-03-01T07:39:46;73.78;;;38.28;;
66856;SDS011;53766;50.280;19.160;2023-03-01T07:42:13;67.82;;;36.50;;
66856;SDS011;53766;50.280;19.160;2023-03-01T07:44:41;66.30;;;36.20;;
66856;SDS011;53766;50.280;19.160;2023-03-01T07:47:09;67.50;;;37.03;;
66856;SDS011;53766;50.280;19.160;2023-03-01T07:49:36;66.93;;;35.97;;
66856;SDS011;53766;50.280;19.160;2023-03-01T07:52:04;66.35;;;35.72;;
66856;SDS011;53766;50.280;19.160;2023-03-01T07:54:31;68.18;;;37.35;;
66856;SDS011;53766;50.280;19.160;2023-03-01T07:56:59;65.30;;;35.58;;
66856;SDS011;53766;50.280;19.160;2023-03-01T07:59:26;67.25;;;37.10;;
66856;SDS011;53766;50.280;19.160;2023-03-01T08:01:56;67.80;;;37.17;;
66856;SDS011;53766;50.280;19.160;2023-03-01T08:04:24;63.78;;;34.97;;
66856;SDS011;53766;50.280;19.160;2023-03-01T08:06:54;69.40;;;37.60;;
66856;SDS011;53766;50.280;19.160;2023-03-01T08:09:23;67.75;;;36.25;;
66856;SDS011;53766;50.280;19.160;2023-03-01T08:11:51;71.43;;;36.78;;
66856;SDS011;53766;50.280;19.160;2023-03-01T08:14:18;64.47;;;36.15;;
66856;SDS011;53766;50.280;19.160;2023-03-01T08:16:48;65.03;;;35.97;;
66856;SDS011;53766;50.280;19.160;2023-03-01T08:19:16;66.97;;;36.10;;
66856;SDS011;53766;50.280;19.160;2023-03-01T08:21:44;63.33;;;37.00;;
66856;SDS011;53766;50.280;19.160;2023-03-01T08:24:11;69.38;;;36.78;;
66856;SDS011;53766;50.280;19.160;2023-03-01T08:26:39;71.05;;;36.97;;
66856;SDS011;53766;50.280;19.160;2023-03-01T08:29:06;75.72;;;36.13;;
66856;SDS011;53766;50.280;19.160;2023-03-01T08:31:35;71.38;;;37.35;;
66856;SDS011;53766;50.280;19.160;2023-03-01T08:34:08;71.78;;;37.38;;
66856;SDS011;53766;50.280;19.160;2023-03-01T08:36:39;72.50;;;37.03;;
66856;SDS011;53766;50.280;19.160;2023-03-01T08:39:09;74.82;;;40.22;;
66856;SDS011;53766;50.280;19.160;2023-03-01T08:41:38;80.45;;;40.42;;
66856;SDS011;53766;50.280;19.160;2023-03-01T08:44:06;82.15;;;38.85;;
66856;SDS011;53766;50.280;19.160;2023-03-01T08:46:36;76.03;;;39.50;;
66856;SDS011;53766;50.280;19.160;2023-03-01T08:49:06;78.93;;;38.72;;
66856;SDS011;53766;50.280;19.160;2023-03-01T08:51:34;78.78;;;38.65;;
66856;SDS011;53766;50.280;19.160;2023-03-01T08:54:04;75.00;;;39.20;;
66856;SDS011;53766;50.280;19.160;2023-03-01T08:56:37;70.83;;;37.33;;
66856;SDS011;53766;50.280;19.160;2023-03-01T08:59:05;71.55;;;37.83;;
66856;SDS011;53766;50.280;19.160;2023-03-01T09:01:33;71.60;;;36.67;;
66856;SDS011;53766;50.280;19.160;2023-03-01T09:04:00;75.55;;;37.60;;
66856;SDS011;53766;50.280;19.160;2023-03-01T09:06:30;75.75;;;36.80;;
66856;SDS011;53766;50.280;19.160;2023-03-01T09:09:00;87.03;;;43.15;;
66856;SDS011;53766;50.280;19.160;2023-03-01T09:11:28;84.47;;;42.60;;
66856;SDS011;53766;50.280;19.160;2023-03-01T09:13:56;90.50;;;48.05;;
66856;SDS011;53766;50.280;19.160;2023-03-01T09:16:24;106.80;;;57.13;;
66856;SDS011;53766;50.280;19.160;2023-03-01T09:18:52;109.10;;;57.47;;
66856;SDS011;53766;50.280;19.160;2023-03-01T09:21:22;107.68;;;54.92;;
66856;SDS011;53766;50.280;19.160;2023-03-01T09:24:15;137.85;;;69.20;;
66856;SDS011;53766;50.280;19.160;2023-03-01T09:26:43;119.53;;;61.45;;
66856;SDS011;53766;50.280;19.160;2023-03-01T09:29:14;116.18;;;60.63;;
66856;SDS011;53766;50.280;19.160;2023-03-01T09:31:43;141.73;;;68.97;;
66856;SDS011;53766;50.280;19.160;2023-03-01T09:34:11;139.35;;;67.60;;
66856;SDS011;53766;50.280;19.160;2023-03-01T09:36:39;121.30;;;61.75;;
66856;SDS011;53766;50.280;19.160;2023-03-01T09:39:06;123.32;;;62.13;;
66856;SDS011;53766;50.280;19.160;2023-03-01T09:41:44;116.65;;;55.88;;
66856;SDS011;53766;50.280;19.160;2023-03-01T09:46:58;145.23;;;73.82;;
66856;SDS011;53766;50.280;19.160;2023-03-01T09:49:28;161.25;;;78.60;;
66856;SDS011;53766;50.280;19.160;2023-03-01T09:54:56;102.53;;;52.00;;
66856;SDS011;53766;50.280;19.160;2023-03-01T10:02:51;85.88;;;42.75;;
66856;SDS011;53766;50.280;19.160;2023-03-01T10:10:52;79.85;;;39.28;;
66856;SDS011;53766;50.280;19.160;2023-03-01T10:13:25;80.47;;;37.50;;
66856;SDS011;53766;50.280;19.160;2023-03-01T10:16:05;67.07;;;35.15;;
66856;SDS011;53766;50.280;19.160;2023-03-01T10:18:41;66.22;;;34.80;;
66856;SDS011;53766;50.280;19.160;2023-03-01T10:21:19;63.92;;;33.70;;
66856;SDS011;53766;50.280;19.160;2023-03-01T10:23:49;62.57;;;33.13;;
66856;SDS011;53766;50.280;19.160;2023-03-01T10:29:09;64.30;;;32.85;;
66856;SDS011;53766;50.280;19.160;2023-03-01T10:31:46;60.13;;;31.75;;
66856;SDS011;53766;50.280;19.160;2023-03-01T10:34:17;70.00;;;32.08;;
66856;SDS011;53766;50.280;19.160;2023-03-01T10:37:09;68.72;;;33.33;;
66856;SDS011;53766;50.280;19.160;2023-03-01T10:42:37;64.00;;;32.20;;
66856;SDS011;53766;50.280;19.160;2023-03-01T10:48:30;69.00;;;32.33;;
66856;SDS011;53766;50.280;19.160;2023-03-01T10:53:27;57.53;;;30.73;;
66856;SDS011;53766;50.280;19.160;2023-03-01T10:56:00;58.60;;;31.42;;
66856;SDS011;53766;50.280;19.160;2023-03-01T10:58:30;55.20;;;29.77;;
66856;SDS011;53766;50.280;19.160;2023-03-01T11:01:03;57.97;;;30.33;;
66856;SDS011;53766;50.280;19.160;2023-03-01T11:03:37;58.67;;;29.63;;
66856;SDS011;53766;50.280;19.160;2023-03-01T11:06:19;53.47;;;29.10;;
66856;SDS011;53766;50.280;19.160;2023-03-01T11:08:49;53.28;;;28.90;;
66856;SDS011;53766;50.280;19.160;2023-03-01T11:11:33;53.65;;;28.05;;
66856;SDS011;53766;50.280;19.160;2023-03-01T11:14:06;47.83;;;26.75;;
66856;SDS011;53766;50.280;19.160;2023-03-01T11:17:01;52.38;;;28.13;;
66856;SDS011;53766;50.280;19.160;2023-03-01T11:19:33;47.33;;;26.85;;
66856;SDS011;53766;50.280;19.160;2023-03-01T11:27:32;42.47;;;24.67;;
66856;SDS011;53766;50.280;19.160;2023-03-01T11:30:19;46.13;;;23.83;;
66856;SDS011;53766;50.280;19.160;2023-03-01T11:35:22;48.05;;;23.58;;
66856;SDS011;53766;50.280;19.160;2023-03-01T11:38:05;40.80;;;23.48;;
66856;SDS011;53766;50.280;19.160;2023-03-01T11:46:26;43.30;;;22.77;;
66856;SDS011;53766;50.280;19.160;2023-03-01T11:57:45;38.10;;;21.55;;
66856;SDS011;53766;50.280;19.160;2023-03-01T12:09:07;36.35;;;20.63;;
66856;SDS011;53766;50.280;19.160;2023-03-01T12:12:07;37.38;;;20.65;;
66856;SDS011;53766;50.280;19.160;2023-03-01T12:15:06;35.88;;;20.17;;
66856;SDS011;53766;50.280;19.160;2023-03-01T12:46:15;28.55;;;17.00;;
66856;SDS011;53766;50.280;19.160;2023-03-01T12:49:08;29.08;;;16.23;;
66856;SDS011;53766;50.280;19.160;2023-03-01T12:51:42;36.65;;;18.35;;
66856;SDS011;53766;50.280;19.160;2023-03-01T12:54:25;31.83;;;17.23;;
66856;SDS011;53766;50.280;19.160;2023-03-01T12:56:55;30.67;;;17.42;;
66856;SDS011;53766;50.280;19.160;2023-03-01T12:59:42;28.70;;;16.25;;
66856;SDS011;53766;50.280;19.160;2023-03-01T13:02:39;31.40;;;16.77;;
66856;SDS011;53766;50.280;19.160;2023-03-01T13:07:55;31.42;;;16.15;;
66856;SDS011;53766;50.280;19.160;2023-03-01T13:10:31;26.20;;;15.63;;
66856;SDS011;53766;50.280;19.160;2023-03-01T13:15:37;27.60;;;16.17;;
66856;SDS011;53766;50.280;19.160;2023-03-01T13:23:12;27.33;;;15.50;;
66856;SDS011;53766;50.280;19.160;2023-03-01T13:31:03;26.85;;;14.85;;
66856;SDS011;53766;50.280;19.160;2023-03-01T13:33:33;26.50;;;14.82;;
66856;SDS011;53766;50.280;19.160;2023-03-01T13:36:07;25.08;;;14.60;;
66856;SDS011;53766;50.280;19.160;2023-03-01T13:46:51;24.52;;;13.77;;
66856;SDS011;53766;50.280;19.160;2023-03-01T13:49:31;24.20;;;14.20;;
66856;SDS011;53766;50.280;19.160;2023-03-01T13:52:35;26.52;;;13.93;;
66856;SDS011;53766;50.280;19.160;2023-03-01T13:55:16;21.75;;;12.93;;
66856;SDS011;53766;50.280;19.160;2023-03-01T13:57:47;23.40;;;14.32;;
66856;SDS011;53766;50.280;19.160;2023-03-01T14:00:37;25.27;;;13.82;;
66856;SDS011;53766;50.280;19.160;2023-03-01T14:06:03;22.33;;;13.40;;
66856;SDS011;53766;50.280;19.160;2023-03-01T14:08:42;22.73;;;12.40;;
66856;SDS011;53766;50.280;19.160;2023-03-01T14:21:40;21.73;;;12.90;;
66856;SDS011;53766;50.280;19.160;2023-03-01T14:24:15;23.23;;;13.38;;
66856;SDS011;53766;50.280;19.160;2023-03-01T14:26:44;21.83;;;12.05;;
66856;SDS011;53766;50.280;19.160;2023-03-01T14:29:53;20.63;;;11.98;;
66856;SDS011;53766;50.280;19.160;2023-03-01T14:34:51;18.67;;;11.15;;
66856;SDS011;53766;50.280;19.160;2023-03-01T14:37:24;20.33;;;12.07;;
66856;SDS011;53766;50.280;19.160;2023-03-01T14:39:52;19.95;;;11.73;;
66856;SDS011;53766;50.280;19.160;2023-03-01T14:42:21;17.83;;;11.43;;
66856;SDS011;53766;50.280;19.160;2023-03-01T14:44:50;19.05;;;11.93;;
66856;SDS011;53766;50.280;19.160;2023-03-01T14:47:30;20.52;;;11.73;;
66856;SDS011;53766;50.280;19.160;2023-03-01T14:50:05;19.05;;;11.02;;
66856;SDS011;53766;50.280;19.160;2023-03-01T14:55:12;18.70;;;10.90;;
66856;SDS011;53766;50.280;19.160;2023-03-01T14:57:49;17.85;;;10.82;;
66856;SDS011;53766;50.280;19.160;2023-03-01T15:00:22;19.50;;;11.75;;
66856;SDS011;53766;50.280;19.160;2023-03-01T15:02:53;17.73;;;10.70;;
66856;SDS011;53766;50.280;19.160;2023-03-01T15:05:24;18.73;;;10.55;;
66856;SDS011;53766;50.280;19.160;2023-03-01T15:07:57;18.75;;;10.85;;
66856;SDS011;53766;50.280;19.160;2023-03-01T15:10:28;18.42;;;11.50;;
66856;SDS011;53766;50.280;19.160;2023-03-01T15:13:11;18.85;;;11.10;;
66856;SDS011;53766;50.280;19.160;2023-03-01T15:15:48;16.15;;;9.80;;
66856;SDS011;53766;50.280;19.160;2023-03-01T15:18:22;18.45;;;10.70;;
66856;SDS011;53766;50.280;19.160;2023-03-01T15:20:54;19.98;;;11.38;;
66856;SDS011;53766;50.280;19.160;2023-03-01T15:23:31;18.20;;;10.20;;
66856;SDS011;53766;50.280;19.160;2023-03-01T15:25:59;18.65;;;10.90;;
66856;SDS011;53766;50.280;19.160;2023-03-01T15:28:28;16.45;;;10.55;;
66856;SDS011;53766;50.280;19.160;2023-03-01T15:31:02;16.83;;;10.75;;
66856;SDS011;53766;50.280;19.160;2023-03-01T15:33:40;17.08;;;9.52;;
66856;SDS011;53766;50.280;19.160;2023-03-01T15:42:12;15.45;;;9.60;;
66856;SDS011;53766;50.280;19.160;2023-03-01T15:47:49;16.60;;;10.32;;
66856;SDS011;53766;50.280;19.160;2023-03-01T15:50:22;14.95;;;9.63;;
66856;SDS011;53766;50.280;19.160;2023-03-01T15:53:05;16.13;;;10.52;;
66856;SDS011;53766;50.280;19.160;2023-03-01T15:55:35;16.45;;;9.50;;
66856;SDS011;53766;50.280;19.160;2023-03-01T15:58:04;15.00;;;9.40;;
66856;SDS011;53766;50.280;19.160;2023-03-01T16:00:37;15.52;;;9.40;;
66856;SDS011;53766;50.280;19.160;2023-03-01T16:03:24;15.27;;;9.48;;
66856;SDS011;53766;50.280;19.160;2023-03-01T16:05:51;15.00;;;9.43;;
66856;SDS011;53766;50.280;19.160;2023-03-01T16:08:20;16.23;;;9.32;;
66856;SDS011;53766;50.280;19.160;2023-03-01T16:10:48;16.45;;;10.20;;
66856;SDS011;53766;50.280;19.160;2023-03-01T16:13:18;17.52;;;9.68;;
66856;SDS011;53766;50.280;19.160;2023-03-01T16:15:46;15.93;;;9.38;;
66856;SDS011;53766;50.280;19.160;2023-03-01T16:18:14;15.38;;;9.25;;
66856;SDS011;53766;50.280;19.160;2023-03-01T16:20:41;15.57;;;9.10;;
66856;SDS011;53766;50.280;19.160;2023-03-01T16:23:10;16.58;;;9.52;;
66856;SDS011;53766;50.280;19.160;2023-03-01T16:25:38;14.23;;;9.15;;
66856;SDS011;53766;50.280;19.160;2023-03-01T16:28:07;14.25;;;8.95;;
66856;SDS011;53766;50.280;19.160;2023-03-01T16:30:38;18.27;;;9.43;;
66856;SDS011;53766;50.280;19.160;2023-03-01T16:33:06;15.68;;;8.75;;
66856;SDS011;53766;50.280;19.160;2023-03-01T16:35:53;12.90;;;8.45;;
66856;SDS011;53766;50.280;19.160;2023-03-01T16:38:21;13.27;;;8.55;;
66856;SDS011;53766;50.280;19.160;2023-03-01T16:40:49;14.02;;;8.75;;
66856;SDS011;53766;50.280;19.160;2023-03-01T16:43:17;15.27;;;9.07;;
66856;SDS011;53766;50.280;19.160;2023-03-01T16:45:45;13.52;;;8.52;;
66856;SDS011;53766;50.280;19.160;2023-03-01T16:48:13;13.40;;;8.30;;
66856;SDS011;53766;50.280;19.160;2023-03-01T16:50:41;15.25;;;8.30;;
66856;SDS011;53766;50.280;19.160;2023-03-01T16:53:08;14.40;;;8.40;;
66856;SDS011;53766;50.280;19.160;2023-03-01T16:55:36;15.25;;;8.25;;
66856;SDS011;53766;50.280;19.160;2023-03-01T16:58:04;14.38;;;8.30;;
66856;SDS011;53766;50.280;19.160;2023-03-01T17:00:32;13.02;;;8.02;;
66856;SDS011;53766;50.280;19.160;2023-03-01T17:03:00;12.20;;;8.57;;